Aboyne, United Kingdom
Current Conditions -  °F | °C
As of 4:50 AM on Saturday 20 Dec 2014 (Local Time) from EGPD Reporting Station
Clear Clear  
Wind Chill: -1°   Ceiling: Unl
Heat Index:   Visibility: 6mi
Dew Point: -1°   Wind: 20mph
Humidity: 70%   Direction: 280°W
Pressure: 29.65"   Gusts: NA
Location:  57.08°N, 2.78°W
Report Text: EGPD 200450Z 28017KT CAVOK 04/M01 Q1004 NOSIG
Loading
Personal Weather Stations






























Interactive Weather Map New forecast layout! Learn more

10-Day Weather Forecast

Advertisements
Track Severe Weather on mobile